Long Melford, United Kingdom
Current Conditions -  °F | °C
As of 11:50 PM on Friday 19 Dec 2014 (Local Time) from EGUW Reporting Station
Clear Clear  
Wind Chill: 31°   Ceiling: Unl
Heat Index: 39°   Visibility: 6mi
Dew Point: 36°   Wind: 15mph
Humidity: 87%   Direction: 240°WSW
Pressure: 30.12"   Gusts: NA
Location:  52.07°N, 0.72°E
Report Text: EGUW 192350Z AUTO 24013KT 9999 NCD 04/02 Q1020
Loading
Personal Weather Stations






























Interactive Weather Map New forecast layout! Learn more

10-Day Weather Forecast

Advertisements
Track Severe Weather on mobile